createdAt,value
2017-02-14T00:00:35.907Z,1023.99
2017-02-14T00:01:35.882Z,1024
2017-02-14T00:02:35.859Z,1023.99
2017-02-14T00:03:35.832Z,1024.03
2017-02-14T00:04:35.803Z,1024.02
2017-02-14T00:05:35.774Z,1024
2017-02-14T00:06:35.745Z,1023.99
2017-02-14T00:07:35.721Z,1023.96
2017-02-14T00:08:35.691Z,1023.91
2017-02-14T00:09:35.664Z,1023.93
2017-02-14T00:10:35.689Z,1023.93
2017-02-14T00:11:35.611Z,1023.97
2017-02-14T00:12:35.579Z,1023.98
2017-02-14T00:13:35.555Z,1023.99
2017-02-14T00:14:35.528Z,1023.9
2017-02-14T00:15:35.500Z,1023.9
2017-02-14T00:16:35.474Z,1023.93
2017-02-14T00:17:35.445Z,1023.94
2017-02-14T00:18:35.416Z,1023.95
2017-02-14T00:19:35.391Z,1023.94
2017-02-14T00:20:35.362Z,1023.89
2017-02-14T00:21:35.334Z,1023.89
2017-02-14T00:22:35.307Z,1023.89
2017-02-14T00:23:35.280Z,1023.88
2017-02-14T00:24:35.251Z,1023.93
2017-02-14T00:25:35.225Z,1023.9
2017-02-14T00:26:35.198Z,1023.92
2017-02-14T00:27:35.166Z,1023.95
2017-02-14T00:28:35.170Z,1023.97
2017-02-14T00:29:35.111Z,1024.01
2017-02-14T00:30:35.083Z,1023.99
2017-02-14T00:31:35.054Z,1023.92
2017-02-14T00:32:35.030Z,1023.92
2017-02-14T00:33:35.003Z,1023.98
2017-02-14T00:34:34.973Z,1023.89
2017-02-14T00:35:34.947Z,1023.92
2017-02-14T00:36:35.128Z,1023.95
2017-02-14T00:37:34.890Z,1023.9
2017-02-14T00:38:34.862Z,1023.87
2017-02-14T00:39:34.837Z,1023.85
2017-02-14T00:40:34.811Z,1023.85
2017-02-14T00:41:34.782Z,1023.92
2017-02-14T00:42:34.755Z,1023.89
2017-02-14T00:43:34.728Z,1023.91
2017-02-14T00:44:34.700Z,1023.94
2017-02-14T00:45:34.671Z,1023.94
2017-02-14T00:46:34.646Z,1024.01
2017-02-14T00:47:34.617Z,1023.97
2017-02-14T00:48:34.585Z,1024.02
2017-02-14T00:49:34.558Z,1023.98
2017-02-14T00:50:34.531Z,1023.9
2017-02-14T00:51:34.558Z,1023.93
2017-02-14T00:52:34.478Z,1023.94
2017-02-14T00:53:34.449Z,1023.95
2017-02-14T00:54:34.425Z,1023.96
2017-02-14T00:55:34.394Z,1023.9
2017-02-14T00:56:34.415Z,1023.87
2017-02-14T00:57:34.336Z,1023.79
2017-02-14T00:58:34.315Z,1023.83
2017-02-14T00:59:34.287Z,1023.84
2017-02-14T01:00:34.257Z,1023.86
2017-02-14T01:01:34.230Z,1023.89
2017-02-14T01:02:34.201Z,1023.9
2017-02-14T01:03:34.171Z,1023.85
2017-02-14T01:04:34.146Z,1023.87
2017-02-14T01:05:34.118Z,1023.84
2017-02-14T01:06:34.090Z,1023.84
2017-02-14T01:07:34.061Z,1023.89
2017-02-14T01:08:34.038Z,1023.93
2017-02-14T01:09:34.008Z,1023.92
2017-02-14T01:10:33.980Z,1023.87
2017-02-14T01:11:33.952Z,1023.87
2017-02-14T01:12:33.926Z,1023.87
2017-02-14T01:13:33.903Z,1023.87
2017-02-14T01:14:33.869Z,1023.86
2017-02-14T01:15:33.841Z,1023.93
2017-02-14T01:16:33.866Z,1023.94
2017-02-14T01:17:33.788Z,1023.96
2017-02-14T01:18:33.756Z,1023.95
2017-02-14T01:19:33.732Z,1023.98
2017-02-14T01:20:33.703Z,1023.99
2017-02-14T01:21:33.676Z,1024.03
2017-02-14T01:22:33.648Z,1024.02
2017-02-14T01:23:33.621Z,1023.98
2017-02-14T01:24:33.598Z,1024.07
2017-02-14T01:25:33.564Z,1024.03
2017-02-14T01:26:33.537Z,1024.04
2017-02-14T01:27:33.509Z,1024.03
2017-02-14T01:28:33.483Z,1023.98
2017-02-14T01:29:33.453Z,1023.93
2017-02-14T01:30:33.430Z,1023.99
2017-02-14T01:31:33.399Z,1023.91
2017-02-14T01:32:33.425Z,1023.85
2017-02-14T01:33:33.347Z,1023.86
2017-02-14T01:34:33.318Z,1023.84
2017-02-14T01:35:33.289Z,1023.83
2017-02-14T01:36:33.260Z,1023.81
2017-02-14T01:37:33.233Z,1023.76
2017-02-14T01:38:33.204Z,1023.81
2017-02-14T01:39:33.177Z,1023.72
2017-02-14T01:40:33.150Z,1023.71
2017-02-14T01:41:33.122Z,1023.73
2017-02-14T01:42:33.148Z,1023.79
2017-02-14T01:43:33.066Z,1023.72
2017-02-14T01:44:33.039Z,1023.76
2017-02-14T01:45:33.009Z,1023.78
2017-02-14T01:46:32.983Z,1023.75
2017-02-14T01:47:32.954Z,1023.72
2017-02-14T01:48:32.926Z,1023.67
2017-02-14T01:49:32.898Z,1023.76
2017-02-14T01:50:32.869Z,1023.76
2017-02-14T01:51:32.843Z,1023.75
2017-02-14T01:52:32.818Z,1023.77
2017-02-14T01:53:32.789Z,1023.74
2017-02-14T01:54:32.761Z,1023.67
2017-02-14T01:55:32.733Z,1023.64
2017-02-14T01:56:32.705Z,1023.62
2017-02-14T01:57:32.676Z,1023.57
2017-02-14T01:58:32.649Z,1023.56
2017-02-14T01:59:32.623Z,1023.58
2017-02-14T02:00:32.596Z,1023.53
2017-02-14T02:01:32.572Z,1023.54
2017-02-14T02:02:32.539Z,1023.55
2017-02-14T02:03:32.509Z,1023.46
2017-02-14T02:04:32.532Z,1023.5
2017-02-14T02:05:32.455Z,1023.5
2017-02-14T02:06:32.431Z,1023.47
2017-02-14T02:07:32.399Z,1023.48
2017-02-14T02:08:32.372Z,1023.52
2017-02-14T02:09:32.345Z,1023.49
2017-02-14T02:10:32.316Z,1023.48
2017-02-14T02:11:32.288Z,1023.48
2017-02-14T02:12:32.259Z,1023.46
2017-02-14T02:13:32.234Z,1023.44
2017-02-14T02:14:32.209Z,1023.46
2017-02-14T02:15:32.178Z,1023.5
2017-02-14T02:16:32.150Z,1023.46
2017-02-14T02:17:32.123Z,1023.44
2017-02-14T02:18:32.096Z,1023.43
2017-02-14T02:19:32.066Z,1023.45
2017-02-14T02:20:32.036Z,1023.41
2017-02-14T02:21:32.007Z,1023.41
2017-02-14T02:22:31.982Z,1023.39
2017-02-14T02:23:31.955Z,1023.37
2017-02-14T02:24:31.925Z,1023.34
2017-02-14T02:25:31.897Z,1023.33
2017-02-14T02:26:31.873Z,1023.31
2017-02-14T02:27:31.840Z,1023.25
2017-02-14T02:28:31.815Z,1023.26
2017-02-14T02:29:31.786Z,1023.25
2017-02-14T02:30:31.759Z,1023.19
2017-02-14T02:31:31.734Z,1023.25
2017-02-14T02:32:31.753Z,1023.19
2017-02-14T02:33:31.679Z,1023.17
2017-02-14T02:34:31.647Z,1023.15
2017-02-14T02:35:31.619Z,1023.09
2017-02-14T02:36:31.591Z,1023.05
2017-02-14T02:37:31.566Z,1023.1
2017-02-14T02:38:31.537Z,1023.15
2017-02-14T02:39:31.512Z,1023.06
2017-02-14T02:40:31.480Z,1023.09
2017-02-14T02:41:31.451Z,1023.04
2017-02-14T02:42:31.423Z,1023.08
2017-02-14T02:43:31.450Z,1023.06
2017-02-14T02:44:31.375Z,1023.04
2017-02-14T02:45:31.339Z,1023.06
2017-02-14T02:46:31.314Z,1023.09
2017-02-14T02:47:31.281Z,1023.03
2017-02-14T02:48:31.259Z,1022.98
2017-02-14T02:49:31.234Z,1023.05
2017-02-14T02:50:31.200Z,1022.98
2017-02-14T02:51:31.176Z,1023
2017-02-14T02:52:31.148Z,1022.97
2017-02-14T02:53:31.116Z,1022.97
2017-02-14T02:54:31.089Z,1022.96
2017-02-14T02:55:31.062Z,1022.93
2017-02-14T02:56:31.037Z,1022.96
2017-02-14T02:57:31.008Z,1022.9
2017-02-14T02:58:30.979Z,1023
2017-02-14T02:59:30.949Z,1022.91
2017-02-14T03:00:30.921Z,1022.97
2017-02-14T03:01:30.896Z,1022.95
2017-02-14T03:02:30.865Z,1022.96
2017-02-14T03:03:30.840Z,1022.99
2017-02-14T03:04:30.813Z,1022.87
2017-02-14T03:05:30.785Z,1022.95
2017-02-14T03:06:30.767Z,1022.91
2017-02-14T03:07:30.724Z,1022.88
2017-02-14T03:08:30.700Z,1022.84
2017-02-14T03:09:30.670Z,1022.9
2017-02-14T03:10:30.692Z,1022.79
2017-02-14T03:11:30.616Z,1022.76
2017-02-14T03:12:30.587Z,1022.75
2017-02-14T03:13:30.608Z,1022.78
2017-02-14T03:14:30.532Z,1022.74
2017-02-14T03:15:30.505Z,1022.75
2017-02-14T03:16:30.478Z,1022.79
2017-02-14T03:17:30.447Z,1022.84
2017-02-14T03:18:30.418Z,1022.82
2017-02-14T03:19:30.391Z,1022.76
2017-02-14T03:20:30.363Z,1022.8
2017-02-14T03:21:30.342Z,1022.81
2017-02-14T03:22:30.309Z,1022.83
2017-02-14T03:23:30.280Z,1022.86
2017-02-14T03:24:30.252Z,1022.84
2017-02-14T03:25:30.226Z,1022.84
2017-02-14T03:26:30.198Z,1022.8
2017-02-14T03:27:30.202Z,1022.84
2017-02-14T03:28:30.148Z,1022.84
2017-02-14T03:29:30.114Z,1022.84
2017-02-14T03:30:30.087Z,1022.84
2017-02-14T03:31:30.065Z,1022.8
2017-02-14T03:32:30.082Z,1022.86
2017-02-14T03:33:30.002Z,1022.85
2017-02-14T03:34:29.995Z,1022.82
2017-02-14T03:35:29.948Z,1022.78
2017-02-14T03:36:29.920Z,1022.77
2017-02-14T03:37:29.895Z,1022.69
2017-02-14T03:38:29.914Z,1022.76
2017-02-14T03:39:29.838Z,1022.73
2017-02-14T03:40:29.809Z,1022.77
2017-02-14T03:41:29.785Z,1022.78
2017-02-14T03:42:29.755Z,1022.79
2017-02-14T03:43:29.731Z,1022.77
2017-02-14T03:44:29.698Z,1022.87
2017-02-14T03:45:29.674Z,1022.82
2017-02-14T03:46:29.643Z,1022.82
2017-02-14T03:47:29.621Z,1022.83
2017-02-14T03:48:29.589Z,1022.87
2017-02-14T03:49:29.561Z,1022.86
2017-02-14T03:50:29.535Z,1022.89
2017-02-14T03:51:29.507Z,1022.85
2017-02-14T03:52:29.479Z,1022.82
2017-02-14T03:53:29.482Z,1022.8
2017-02-14T03:54:29.475Z,1022.76
2017-02-14T03:55:29.397Z,1022.82
2017-02-14T03:56:29.368Z,1022.77
2017-02-14T03:57:29.346Z,1022.76
2017-02-14T03:58:29.317Z,1022.72
2017-02-14T03:59:29.286Z,1022.68
2017-02-14T04:00:29.257Z,1022.66
2017-02-14T04:01:29.232Z,1022.71
2017-02-14T04:02:29.204Z,1022.64
2017-02-14T04:03:29.177Z,1022.63
2017-02-14T04:04:29.162Z,1022.66
2017-02-14T04:05:29.121Z,1022.6
2017-02-14T04:06:29.094Z,1022.64
2017-02-14T04:07:29.068Z,1022.74
2017-02-14T04:08:29.039Z,1022.68
2017-02-14T04:09:29.014Z,1022.63
2017-02-14T04:10:28.981Z,1022.69
2017-02-14T04:11:28.983Z,1022.68
2017-02-14T04:12:28.932Z,1022.7
2017-02-14T04:13:28.900Z,1022.7
2017-02-14T04:14:28.870Z,1022.76
2017-02-14T04:15:28.843Z,1022.73
2017-02-14T04:16:28.818Z,1022.74
2017-02-14T04:17:28.787Z,1022.76
2017-02-14T04:18:28.760Z,1022.77
2017-02-14T04:19:28.735Z,1022.74
2017-02-14T04:20:28.710Z,1022.78
2017-02-14T04:21:28.679Z,1022.78
2017-02-14T04:22:28.652Z,1022.78
2017-02-14T04:23:28.625Z,1022.83
2017-02-14T04:24:28.595Z,1022.84
2017-02-14T04:25:28.570Z,1022.88
2017-02-14T04:26:28.538Z,1022.88
2017-02-14T04:27:28.516Z,1022.83
2017-02-14T04:28:28.485Z,1022.87
2017-02-14T04:29:28.458Z,1022.83
2017-02-14T04:30:28.433Z,1022.93
2017-02-14T04:31:28.451Z,1022.9
2017-02-14T04:32:28.372Z,1022.9
2017-02-14T04:33:28.349Z,1022.94
2017-02-14T04:34:28.318Z,1022.95
2017-02-14T04:35:28.295Z,1022.9
2017-02-14T04:36:28.263Z,1022.95
2017-02-14T04:37:28.234Z,1022.96
2017-02-14T04:38:28.209Z,1022.97
2017-02-14T04:39:28.179Z,1023.01
2017-02-14T04:40:28.150Z,1022.99
2017-02-14T04:41:28.124Z,1023.02
2017-02-14T04:42:28.101Z,1022.95
2017-02-14T04:43:28.071Z,1023.02
2017-02-14T04:44:28.039Z,1022.97
2017-02-14T04:45:28.016Z,1023
2017-02-14T04:46:27.986Z,1023.03
2017-02-14T04:47:27.957Z,1023.02
2017-02-14T04:48:27.929Z,1023.05
2017-02-14T04:49:27.902Z,1023.04
2017-02-14T04:50:27.924Z,1023.03
2017-02-14T04:51:27.851Z,1023.02
2017-02-14T04:52:27.822Z,1022.9
2017-02-14T04:53:27.790Z,1022.91
2017-02-14T04:54:27.764Z,1022.95
2017-02-14T04:55:27.738Z,1022.91
2017-02-14T04:56:27.709Z,1022.91
2017-02-14T04:57:27.682Z,1022.92
2017-02-14T04:58:27.655Z,1022.84
2017-02-14T04:59:27.675Z,1022.83
2017-02-14T05:00:27.648Z,1022.86
2017-02-14T05:01:27.569Z,1022.81
2017-02-14T05:02:27.539Z,1022.74
2017-02-14T05:03:27.513Z,1022.66
2017-02-14T05:04:27.489Z,1022.68
2017-02-14T05:05:27.458Z,1022.6
2017-02-14T05:06:27.431Z,1022.57
2017-02-14T05:07:27.404Z,1022.54
2017-02-14T05:08:27.375Z,1022.58
2017-02-14T05:09:27.347Z,1022.62
2017-02-14T05:10:27.319Z,1022.57
2017-02-14T05:11:27.292Z,1022.59
2017-02-14T05:12:27.262Z,1022.6
2017-02-14T05:13:27.238Z,1022.58
2017-02-14T05:14:27.206Z,1022.65
2017-02-14T05:15:27.179Z,1022.7
2017-02-14T05:16:27.153Z,1022.63
2017-02-14T05:17:27.123Z,1022.69
2017-02-14T05:18:27.098Z,1022.72
2017-02-14T05:19:27.067Z,1022.71
2017-02-14T05:20:27.039Z,1022.71
2017-02-14T05:21:27.011Z,1022.68
2017-02-14T05:22:26.986Z,1022.61
2017-02-14T05:23:26.955Z,1022.64
2017-02-14T05:24:26.927Z,1022.67
2017-02-14T05:25:26.904Z,1022.59
2017-02-14T05:26:26.875Z,1022.6
2017-02-14T05:27:26.843Z,1022.58
2017-02-14T05:28:26.814Z,1022.62
2017-02-14T05:29:26.786Z,1022.59
2017-02-14T05:30:26.758Z,1022.61
2017-02-14T05:31:26.730Z,1022.6
2017-02-14T05:32:26.701Z,1022.6
2017-02-14T05:33:26.677Z,1022.59
2017-02-14T05:34:26.645Z,1022.56
2017-02-14T05:35:26.624Z,1022.62
2017-02-14T05:36:26.591Z,1022.6
2017-02-14T05:37:26.612Z,1022.62
2017-02-14T05:38:26.535Z,1022.62
2017-02-14T05:39:26.509Z,1022.69
2017-02-14T05:40:26.478Z,1022.66
2017-02-14T05:41:26.453Z,1022.65
2017-02-14T05:42:26.424Z,1022.69
2017-02-14T05:43:26.400Z,1022.69
2017-02-14T05:44:26.373Z,1022.63
2017-02-14T05:45:26.337Z,1022.68
2017-02-14T05:46:26.309Z,1022.69
2017-02-14T05:47:26.285Z,1022.73
2017-02-14T05:48:26.255Z,1022.71
2017-02-14T05:49:26.227Z,1022.73
2017-02-14T05:50:26.201Z,1022.63
2017-02-14T05:51:26.168Z,1022.73
2017-02-14T05:52:26.143Z,1022.75
2017-02-14T05:53:26.111Z,1022.75
2017-02-14T05:54:26.088Z,1022.72
2017-02-14T05:55:26.056Z,1022.78
2017-02-14T05:56:26.080Z,1022.72
2017-02-14T05:57:26.003Z,1022.83
2017-02-14T05:58:25.972Z,1022.79
2017-02-14T05:59:25.946Z,1022.81
2017-02-14T06:00:25.921Z,1022.86
2017-02-14T06:01:25.891Z,1022.81
2017-02-14T06:02:25.860Z,1022.87
2017-02-14T06:03:25.836Z,1022.84
2017-02-14T06:04:25.808Z,1022.82
2017-02-14T06:05:25.782Z,1022.78
2017-02-14T06:06:25.746Z,1022.81
2017-02-14T06:07:25.718Z,1022.78
2017-02-14T06:08:25.692Z,1022.76
2017-02-14T06:09:25.664Z,1022.74
2017-02-14T06:10:25.635Z,1022.72
2017-02-14T06:11:25.657Z,1022.74
2017-02-14T06:12:25.579Z,1022.83
2017-02-14T06:13:25.577Z,1022.78
2017-02-14T06:14:25.521Z,1022.8
2017-02-14T06:15:25.494Z,1022.81
2017-02-14T06:16:25.464Z,1022.86
2017-02-14T06:17:25.437Z,1022.82
2017-02-14T06:18:25.415Z,1022.89
2017-02-14T06:19:25.381Z,1022.87
2017-02-14T06:20:25.352Z,1022.87
2017-02-14T06:21:25.325Z,1022.9
2017-02-14T06:22:25.297Z,1022.89
2017-02-14T06:23:25.267Z,1022.96
2017-02-14T06:24:25.242Z,1022.97
2017-02-14T06:25:25.211Z,1022.99
2017-02-14T06:26:25.191Z,1022.97
2017-02-14T06:27:25.154Z,1022.97
2017-02-14T06:28:25.126Z,1022.98
2017-02-14T06:29:25.099Z,1022.95
2017-02-14T06:30:25.069Z,1023.01
2017-02-14T06:31:25.040Z,1023.04
2017-02-14T06:32:25.019Z,1023
2017-02-14T06:33:24.984Z,1023.01
2017-02-14T06:34:24.955Z,1023.01
2017-02-14T06:35:24.927Z,1023
2017-02-14T06:36:24.897Z,1023.01
2017-02-14T06:37:24.870Z,1023.03
2017-02-14T06:38:24.843Z,1023.06
2017-02-14T06:39:24.813Z,1023.04
2017-02-14T06:40:24.786Z,1023.03
2017-02-14T06:41:24.756Z,1023.07
2017-02-14T06:42:24.728Z,1023.08
2017-02-14T06:43:24.699Z,1023.07
2017-02-14T06:44:24.670Z,1023.03
2017-02-14T06:45:24.643Z,1023.05
2017-02-14T06:46:24.615Z,1023.11
2017-02-14T06:47:24.589Z,1023.07
2017-02-14T06:48:24.609Z,1023.1
2017-02-14T06:49:24.530Z,1023.02
2017-02-14T06:50:24.500Z,1023.01
2017-02-14T06:51:24.478Z,1023
2017-02-14T06:52:24.445Z,1022.96
2017-02-14T06:53:24.417Z,1023.02
2017-02-14T06:54:24.391Z,1022.95
2017-02-14T06:55:24.359Z,1022.94
2017-02-14T06:56:24.332Z,1023.03
2017-02-14T06:57:24.302Z,1022.93
2017-02-14T06:58:24.272Z,1022.92
2017-02-14T06:59:24.250Z,1022.91
2017-02-14T07:00:24.220Z,1023.01
2017-02-14T07:01:24.192Z,1022.94
2017-02-14T07:02:24.159Z,1022.96
2017-02-14T07:03:24.133Z,1022.99
2017-02-14T07:04:24.101Z,1023.02
2017-02-14T07:05:24.076Z,1023.01
2017-02-14T07:06:24.045Z,1023.02
2017-02-14T07:07:24.017Z,1023.04
2017-02-14T07:08:24.005Z,1023.01
2017-02-14T07:09:23.960Z,1022.99
2017-02-14T07:10:23.937Z,1023.06
2017-02-14T07:11:23.935Z,1023.05
2017-02-14T07:12:23.876Z,1023.03
2017-02-14T07:13:23.848Z,1023.06
2017-02-14T07:14:23.817Z,1023.02
2017-02-14T07:15:23.793Z,1023.06
2017-02-14T07:16:23.760Z,1023.08
2017-02-14T07:17:23.735Z,1023.1
2017-02-14T07:18:23.712Z,1023.08
2017-02-14T07:19:23.679Z,1023.06
2017-02-14T07:20:23.654Z,1023.14
2017-02-14T07:21:23.629Z,1023.17
2017-02-14T07:22:23.594Z,1023.18
2017-02-14T07:23:23.564Z,1023.1
2017-02-14T07:24:23.538Z,1023.1
2017-02-14T07:25:23.511Z,1023.1
2017-02-14T07:26:23.531Z,1023.04
2017-02-14T07:27:23.455Z,1023.14
2017-02-14T07:28:23.425Z,1023.12
2017-02-14T07:29:23.404Z,1023.11
2017-02-14T07:30:23.370Z,1023.17
2017-02-14T07:31:23.348Z,1023.14
2017-02-14T07:32:23.319Z,1023.11
2017-02-14T07:33:23.290Z,1023.14
2017-02-14T07:34:23.264Z,1023.22
2017-02-14T07:35:23.241Z,1023.17
2017-02-14T07:36:23.211Z,1023.26
2017-02-14T07:37:23.186Z,1023.27
2017-02-14T07:38:23.161Z,1023.3
2017-02-14T07:39:23.132Z,1023.3
2017-02-14T07:40:23.109Z,1023.29
2017-02-14T07:41:23.085Z,1023.31
2017-02-14T07:42:23.066Z,1023.39
2017-02-14T07:43:23.042Z,1023.36
2017-02-14T07:44:23.012Z,1023.35
2017-02-14T07:45:22.984Z,1023.39
2017-02-14T07:46:22.961Z,1023.38
2017-02-14T07:47:22.946Z,1023.44
2017-02-14T07:48:22.913Z,1023.45
2017-02-14T07:49:22.889Z,1023.38
2017-02-14T07:50:22.866Z,1023.43
2017-02-14T07:51:22.843Z,1023.42
2017-02-14T07:52:22.824Z,1023.44
2017-02-14T07:53:22.799Z,1023.44
2017-02-14T07:54:22.773Z,1023.41
2017-02-14T07:55:22.760Z,1023.48
2017-02-14T07:56:22.725Z,1023.5
2017-02-14T07:57:22.724Z,1023.46
2017-02-14T07:58:22.681Z,1023.5
2017-02-14T07:59:22.655Z,1023.54
2017-02-14T08:00:22.637Z,1023.55
2017-02-14T08:01:22.615Z,1023.52
2017-02-14T08:02:22.592Z,1023.5
2017-02-14T08:03:22.575Z,1023.53
2017-02-14T08:04:22.547Z,1023.61
2017-02-14T08:05:22.524Z,1023.51
2017-02-14T08:06:22.524Z,1023.55
2017-02-14T08:07:22.478Z,1023.52
2017-02-14T08:08:22.458Z,1023.63
2017-02-14T08:09:22.441Z,1023.61
2017-02-14T08:10:22.414Z,1023.62
2017-02-14T08:11:22.393Z,1023.61
2017-02-14T08:12:22.375Z,1023.62
2017-02-14T08:13:22.351Z,1023.58
2017-02-14T08:14:22.375Z,1023.69
2017-02-14T08:15:22.309Z,1023.69
2017-02-14T08:16:22.289Z,1023.68
2017-02-14T08:17:22.263Z,1023.72
2017-02-14T08:18:22.240Z,1023.68
2017-02-14T08:19:22.219Z,1023.76
2017-02-14T08:20:22.200Z,1023.75
2017-02-14T08:21:22.177Z,1023.74
2017-02-14T08:22:22.157Z,1023.69
2017-02-14T08:23:22.134Z,1023.77
2017-02-14T08:24:22.120Z,1023.77
2017-02-14T08:25:22.104Z,1023.75
2017-02-14T08:26:22.076Z,1023.78
2017-02-14T08:27:22.054Z,1023.77
2017-02-14T08:28:22.030Z,1023.79
2017-02-14T08:29:22.008Z,1023.82
2017-02-14T08:30:21.985Z,1023.82
2017-02-14T08:31:21.964Z,1023.7
2017-02-14T08:32:21.945Z,1023.69
2017-02-14T08:33:21.922Z,1023.72
2017-02-14T08:34:21.900Z,1023.74
2017-02-14T08:35:21.886Z,1023.7
2017-02-14T08:36:21.862Z,1023.72
2017-02-14T08:37:21.839Z,1023.7
2017-02-14T08:38:21.819Z,1023.71
2017-02-14T08:39:21.798Z,1023.78
2017-02-14T08:40:21.776Z,1023.79
2017-02-14T08:41:21.756Z,1023.77
2017-02-14T08:42:21.733Z,1023.74
2017-02-14T08:43:21.719Z,1023.84
2017-02-14T08:44:21.994Z,1023.82
2017-02-14T08:45:21.668Z,1023.79
2017-02-14T08:46:21.649Z,1023.89
2017-02-14T08:47:21.628Z,1023.81
2017-02-14T08:48:21.607Z,1023.83
2017-02-14T08:49:21.590Z,1023.78
2017-02-14T08:50:21.568Z,1023.82
2017-02-14T08:51:21.596Z,1023.85
2017-02-14T08:52:21.528Z,1023.8
2017-02-14T08:53:21.505Z,1023.86
2017-02-14T08:54:21.483Z,1023.85
2017-02-14T08:55:21.460Z,1023.86
2017-02-14T08:56:21.440Z,1023.77
2017-02-14T08:57:21.429Z,1023.78
2017-02-14T08:58:21.400Z,1023.74
2017-02-14T08:59:21.379Z,1023.74
2017-02-14T09:00:21.357Z,1023.82
2017-02-14T09:01:21.337Z,1023.73
2017-02-14T09:02:21.317Z,1023.77
2017-02-14T09:03:21.294Z,1023.78
2017-02-14T09:04:21.275Z,1023.79
2017-02-14T09:05:21.253Z,1023.77
2017-02-14T09:06:21.233Z,1023.77
2017-02-14T09:07:21.213Z,1023.76
2017-02-14T09:08:21.194Z,1023.81
2017-02-14T09:09:21.171Z,1023.84
2017-02-14T09:10:21.148Z,1023.83
2017-02-14T09:11:21.128Z,1023.85
2017-02-14T09:12:21.107Z,1023.79
2017-02-14T09:13:21.076Z,1023.79
2017-02-14T09:14:21.060Z,1023.79
2017-02-14T09:15:21.039Z,1023.8
2017-02-14T09:16:21.016Z,1023.82
2017-02-14T09:17:21.002Z,1023.8
2017-02-14T09:18:20.971Z,1023.84
2017-02-14T09:19:20.964Z,1023.79
2017-02-14T09:20:20.925Z,1023.82
2017-02-14T09:21:20.901Z,1023.8
2017-02-14T09:22:20.877Z,1023.8
2017-02-14T09:23:20.855Z,1023.86
2017-02-14T09:24:20.832Z,1023.81
2017-02-14T09:25:20.806Z,1023.87
2017-02-14T09:26:20.792Z,1023.87
2017-02-14T09:27:20.767Z,1023.88
2017-02-14T09:28:20.789Z,1023.94
2017-02-14T09:29:20.717Z,1023.9
2017-02-14T09:30:20.691Z,1023.95
2017-02-14T09:31:20.669Z,1023.94
2017-02-14T09:32:20.644Z,1024
2017-02-14T09:33:20.622Z,1023.97
2017-02-14T09:34:20.596Z,1023.98
2017-02-14T09:35:20.574Z,1023.99
2017-02-14T09:36:20.546Z,1024.02
2017-02-14T09:37:20.526Z,1024.03
2017-02-14T09:38:20.500Z,1023.98
2017-02-14T09:39:20.477Z,1024.01
2017-02-14T09:40:20.457Z,1024.01
2017-02-14T09:41:20.430Z,1024.02
2017-02-14T09:42:20.407Z,1024.06
2017-02-14T09:43:20.383Z,1024.02
2017-02-14T09:44:20.359Z,1024.04
2017-02-14T09:45:20.337Z,1024.11
2017-02-14T09:46:20.311Z,1024.07
2017-02-14T09:47:20.297Z,1024.15
2017-02-14T09:48:20.265Z,1024.12
2017-02-14T09:49:20.538Z,1024.18
2017-02-14T09:50:20.220Z,1024.19
2017-02-14T09:51:20.195Z,1024.18
2017-02-14T09:52:20.173Z,1024.2
2017-02-14T09:53:20.141Z,1024.21
2017-02-14T09:54:20.122Z,1024.18
2017-02-14T09:55:20.095Z,1024.14
2017-02-14T09:56:20.074Z,1024.18
2017-02-14T09:57:20.048Z,1024.15
2017-02-14T09:58:20.027Z,1024.21
2017-02-14T09:59:19.999Z,1024.24
2017-02-14T10:00:19.978Z,1024.18
2017-02-14T10:01:19.952Z,1024.19
2017-02-14T10:02:19.927Z,1024.24
2017-02-14T10:03:19.904Z,1024.24
2017-02-14T10:04:19.883Z,1024.21
2017-02-14T10:05:19.857Z,1024.26
2017-02-14T10:06:19.828Z,1024.3
2017-02-14T10:07:19.807Z,1024.24
2017-02-14T10:08:19.781Z,1024.23
2017-02-14T10:09:19.761Z,1024.2
2017-02-14T10:10:19.734Z,1024.23
2017-02-14T10:11:19.710Z,1024.28
2017-02-14T10:12:19.684Z,1024.25
2017-02-14T10:13:19.665Z,1024.22
2017-02-14T10:14:19.687Z,1024.28
2017-02-14T10:15:19.611Z,1024.28
2017-02-14T10:16:19.638Z,1024.28
2017-02-14T10:17:19.562Z,1024.35
2017-02-14T10:18:19.539Z,1024.37
2017-02-14T10:19:19.513Z,1024.39
2017-02-14T10:20:19.493Z,1024.41
2017-02-14T10:21:19.469Z,1024.35
2017-02-14T10:22:19.445Z,1024.45
2017-02-14T10:23:19.417Z,1024.44
2017-02-14T10:24:19.396Z,1024.38
2017-02-14T10:25:19.370Z,1024.38
2017-02-14T10:26:19.349Z,1024.41
2017-02-14T10:27:19.323Z,1024.42
2017-02-14T10:28:19.299Z,1024.4
2017-02-14T10:29:19.276Z,1024.38
2017-02-14T10:30:19.251Z,1024.37
2017-02-14T10:31:19.228Z,1024.43
2017-02-14T10:32:19.207Z,1024.37
2017-02-14T10:33:19.177Z,1024.44
2017-02-14T10:34:19.154Z,1024.4
2017-02-14T10:35:19.134Z,1024.41
2017-02-14T10:36:19.107Z,1024.44
2017-02-14T10:37:19.083Z,1024.38
2017-02-14T10:38:19.057Z,1024.46
2017-02-14T10:39:19.033Z,1024.47
2017-02-14T10:40:19.010Z,1024.52
2017-02-14T10:41:18.985Z,1024.46
2017-02-14T10:42:18.963Z,1024.49
2017-02-14T10:43:18.938Z,1024.49
2017-02-14T10:44:18.914Z,1024.42
2017-02-14T10:45:18.888Z,1024.38
2017-02-14T10:46:18.869Z,1024.46
2017-02-14T10:47:18.847Z,1024.5
2017-02-14T10:48:18.817Z,1024.53
2017-02-14T10:49:18.796Z,1024.54
2017-02-14T10:50:18.771Z,1024.54
2017-02-14T10:51:18.793Z,1024.53
2017-02-14T10:52:18.721Z,1024.57
2017-02-14T10:53:18.695Z,1024.47
2017-02-14T10:54:18.673Z,1024.47
2017-02-14T10:55:18.652Z,1024.45
2017-02-14T10:56:18.631Z,1024.5
2017-02-14T10:57:18.603Z,1024.46
2017-02-14T10:58:18.579Z,1024.48
2017-02-14T10:59:18.556Z,1024.39
2017-02-14T11:00:18.531Z,1024.36
2017-02-14T11:01:18.507Z,1024.38
2017-02-14T11:02:18.482Z,1024.37
2017-02-14T11:03:18.457Z,1024.36
2017-02-14T11:04:18.432Z,1024.38
2017-02-14T11:05:18.407Z,1024.34
2017-02-14T11:06:18.388Z,1024.35
2017-02-14T11:07:18.356Z,1024.36
2017-02-14T11:08:18.339Z,1024.3
2017-02-14T11:09:18.315Z,1024.34
2017-02-14T11:10:18.289Z,1024.32
2017-02-14T11:11:18.264Z,1024.26
2017-02-14T11:12:18.242Z,1024.27
2017-02-14T11:13:18.517Z,1024.32
2017-02-14T11:14:18.193Z,1024.32
2017-02-14T11:15:18.173Z,1024.37
2017-02-14T11:16:18.146Z,1024.36
2017-02-14T11:17:18.126Z,1024.32
2017-02-14T11:18:18.099Z,1024.31
2017-02-14T11:19:18.129Z,1024.35
2017-02-14T11:20:18.104Z,1024.35
2017-02-14T11:21:18.025Z,1024.37
2017-02-14T11:22:18.002Z,1024.31
2017-02-14T11:23:17.984Z,1024.3
2017-02-14T11:24:17.954Z,1024.34
2017-02-14T11:25:17.936Z,1024.28
2017-02-14T11:26:17.908Z,1024.3
2017-02-14T11:27:17.886Z,1024.32
2017-02-14T11:28:17.861Z,1024.34
2017-02-14T11:29:17.885Z,1024.31
2017-02-14T11:30:17.814Z,1024.27
2017-02-14T11:31:17.793Z,1024.32
2017-02-14T11:32:17.767Z,1024.33
2017-02-14T11:33:17.747Z,1024.27
2017-02-14T11:34:17.720Z,1024.29
2017-02-14T11:35:17.696Z,1024.28
2017-02-14T11:36:17.669Z,1024.27
2017-02-14T11:37:17.648Z,1024.24
2017-02-14T11:38:17.626Z,1024.23
2017-02-14T11:39:17.600Z,1024.27
2017-02-14T11:40:17.574Z,1024.28
2017-02-14T11:41:17.554Z,1024.28
2017-02-14T11:42:17.529Z,1024.28
2017-02-14T11:43:17.508Z,1024.27
2017-02-14T11:44:17.481Z,1024.2
2017-02-14T11:45:17.457Z,1024.26
2017-02-14T11:46:17.434Z,1024.24
2017-02-14T11:47:17.414Z,1024.22
2017-02-14T11:48:17.391Z,1024.22
2017-02-14T11:49:17.363Z,1024.24
2017-02-14T11:50:17.340Z,1024.23
2017-02-14T11:51:17.317Z,1024.18
2017-02-14T11:52:17.290Z,1024.23
2017-02-14T11:53:17.268Z,1024.2
2017-02-14T11:54:17.245Z,1024.22
2017-02-14T11:55:17.272Z,1024.24
2017-02-14T11:56:17.301Z,1024.24
2017-02-14T11:57:17.175Z,1024.29
2017-02-14T11:58:17.152Z,1024.24
2017-02-14T11:59:17.131Z,1024.25
2017-02-14T12:00:17.102Z,1024.26
2017-02-14T12:01:17.079Z,1024.27
2017-02-14T12:02:17.058Z,1024.19
2017-02-14T12:03:17.034Z,1024.21
2017-02-14T12:04:17.014Z,1024.23
2017-02-14T12:05:16.987Z,1024.21
2017-02-14T12:06:16.965Z,1024.23
2017-02-14T12:07:16.940Z,1024.24
2017-02-14T12:08:16.918Z,1024.23